sensor_id;sensor_type;location;lat;lon;timestamp;P1;durP1;ratioP1;P2;durP2;ratioP2
33188;SDS011;52601;53.070;10.600;2022-12-18T00:02:37;15.05;;;7.68;;
33188;SDS011;52601;53.070;10.600;2022-12-18T00:05:22;12.30;;;7.27;;
33188;SDS011;52601;53.070;10.600;2022-12-18T00:08:08;17.02;;;9.02;;
33188;SDS011;52601;53.070;10.600;2022-12-18T00:10:53;16.08;;;7.72;;
33188;SDS011;52601;53.070;10.600;2022-12-18T00:13:44;14.77;;;7.93;;
33188;SDS011;52601;53.070;10.600;2022-12-18T00:16:30;15.20;;;8.60;;
33188;SDS011;52601;53.070;10.600;2022-12-18T00:19:18;14.40;;;8.07;;
33188;SDS011;52601;53.070;10.600;2022-12-18T00:22:03;11.95;;;7.35;;
33188;SDS011;52601;53.070;10.600;2022-12-18T00:24:49;14.50;;;7.00;;
33188;SDS011;52601;53.070;10.600;2022-12-18T00:27:34;15.13;;;7.90;;
33188;SDS011;52601;53.070;10.600;2022-12-18T00:30:19;14.13;;;7.45;;
33188;SDS011;52601;53.070;10.600;2022-12-18T00:33:05;14.18;;;7.32;;
33188;SDS011;52601;53.070;10.600;2022-12-18T00:35:50;12.52;;;7.18;;
33188;SDS011;52601;53.070;10.600;2022-12-18T00:38:36;15.30;;;7.38;;
33188;SDS011;52601;53.070;10.600;2022-12-18T00:41:22;13.40;;;7.93;;
33188;SDS011;52601;53.070;10.600;2022-12-18T00:44:31;15.63;;;8.13;;
33188;SDS011;52601;53.070;10.600;2022-12-18T00:47:17;17.95;;;8.80;;
33188;SDS011;52601;53.070;10.600;2022-12-18T00:50:03;17.90;;;8.52;;
33188;SDS011;52601;53.070;10.600;2022-12-18T00:52:49;15.15;;;7.95;;
33188;SDS011;52601;53.070;10.600;2022-12-18T00:55:35;18.38;;;7.85;;
33188;SDS011;52601;53.070;10.600;2022-12-18T00:58:23;17.00;;;8.23;;
33188;SDS011;52601;53.070;10.600;2022-12-18T01:01:08;16.87;;;8.63;;
33188;SDS011;52601;53.070;10.600;2022-12-18T01:03:53;15.43;;;8.10;;
33188;SDS011;52601;53.070;10.600;2022-12-18T01:06:39;16.67;;;8.68;;
33188;SDS011;52601;53.070;10.600;2022-12-18T01:09:25;13.40;;;7.73;;
33188;SDS011;52601;53.070;10.600;2022-12-18T01:12:11;14.98;;;7.50;;
33188;SDS011;52601;53.070;10.600;2022-12-18T01:14:56;12.40;;;6.78;;
33188;SDS011;52601;53.070;10.600;2022-12-18T01:17:42;15.93;;;7.88;;
33188;SDS011;52601;53.070;10.600;2022-12-18T01:20:28;17.98;;;8.35;;
33188;SDS011;52601;53.070;10.600;2022-12-18T01:23:13;18.38;;;8.63;;
33188;SDS011;52601;53.070;10.600;2022-12-18T01:26:03;15.65;;;8.35;;
33188;SDS011;52601;53.070;10.600;2022-12-18T01:28:54;16.60;;;8.40;;
33188;SDS011;52601;53.070;10.600;2022-12-18T01:31:42;18.02;;;8.93;;
33188;SDS011;52601;53.070;10.600;2022-12-18T01:34:27;18.30;;;8.50;;
33188;SDS011;52601;53.070;10.600;2022-12-18T01:37:13;15.03;;;8.27;;
33188;SDS011;52601;53.070;10.600;2022-12-18T01:39:58;14.55;;;7.68;;
33188;SDS011;52601;53.070;10.600;2022-12-18T01:42:44;14.33;;;7.83;;
33188;SDS011;52601;53.070;10.600;2022-12-18T01:45:30;14.32;;;7.47;;
33188;SDS011;52601;53.070;10.600;2022-12-18T01:48:17;14.75;;;8.07;;
33188;SDS011;52601;53.070;10.600;2022-12-18T01:51:02;15.07;;;7.70;;
33188;SDS011;52601;53.070;10.600;2022-12-18T01:53:51;15.88;;;8.68;;
33188;SDS011;52601;53.070;10.600;2022-12-18T01:56:37;15.38;;;8.13;;
33188;SDS011;52601;53.070;10.600;2022-12-18T01:59:22;16.27;;;8.38;;
33188;SDS011;52601;53.070;10.600;2022-12-18T02:02:08;14.57;;;8.48;;
33188;SDS011;52601;53.070;10.600;2022-12-18T02:04:56;13.13;;;8.65;;
33188;SDS011;52601;53.070;10.600;2022-12-18T02:07:43;16.45;;;8.65;;
33188;SDS011;52601;53.070;10.600;2022-12-18T02:14:30;17.42;;;7.95;;
33188;SDS011;52601;53.070;10.600;2022-12-18T02:20:36;16.08;;;7.03;;
33188;SDS011;52601;53.070;10.600;2022-12-18T02:23:37;15.40;;;8.77;;
33188;SDS011;52601;53.070;10.600;2022-12-18T02:26:32;16.05;;;8.57;;
33188;SDS011;52601;53.070;10.600;2022-12-18T02:32:11;17.33;;;8.00;;
33188;SDS011;52601;53.070;10.600;2022-12-18T02:35:00;14.03;;;7.17;;
33188;SDS011;52601;53.070;10.600;2022-12-18T02:37:49;14.52;;;7.72;;
33188;SDS011;52601;53.070;10.600;2022-12-18T02:40:39;13.48;;;8.13;;
33188;SDS011;52601;53.070;10.600;2022-12-18T02:43:27;17.10;;;8.35;;
33188;SDS011;52601;53.070;10.600;2022-12-18T02:46:28;18.53;;;7.80;;
33188;SDS011;52601;53.070;10.600;2022-12-18T02:49:22;15.55;;;8.82;;
33188;SDS011;52601;53.070;10.600;2022-12-18T02:55:23;16.63;;;8.10;;
33188;SDS011;52601;53.070;10.600;2022-12-18T03:04:03;17.85;;;9.30;;
33188;SDS011;52601;53.070;10.600;2022-12-18T03:06:57;16.38;;;8.48;;
33188;SDS011;52601;53.070;10.600;2022-12-18T03:09:48;19.50;;;9.10;;
33188;SDS011;52601;53.070;10.600;2022-12-18T03:12:37;15.43;;;8.45;;
33188;SDS011;52601;53.070;10.600;2022-12-18T03:15:29;14.77;;;8.10;;
33188;SDS011;52601;53.070;10.600;2022-12-18T03:18:21;16.52;;;8.48;;
33188;SDS011;52601;53.070;10.600;2022-12-18T03:21:11;17.45;;;8.63;;
33188;SDS011;52601;53.070;10.600;2022-12-18T03:24:01;16.07;;;7.93;;
33188;SDS011;52601;53.070;10.600;2022-12-18T03:26:51;16.25;;;8.63;;
33188;SDS011;52601;53.070;10.600;2022-12-18T03:29:43;15.32;;;7.80;;
33188;SDS011;52601;53.070;10.600;2022-12-18T03:32:39;14.98;;;8.50;;
33188;SDS011;52601;53.070;10.600;2022-12-18T03:35:46;17.08;;;7.68;;
33188;SDS011;52601;53.070;10.600;2022-12-18T03:38:32;13.25;;;7.18;;
33188;SDS011;52601;53.070;10.600;2022-12-18T03:41:19;15.70;;;8.27;;
33188;SDS011;52601;53.070;10.600;2022-12-18T03:44:17;18.38;;;9.23;;
33188;SDS011;52601;53.070;10.600;2022-12-18T03:50:18;15.52;;;8.20;;
33188;SDS011;52601;53.070;10.600;2022-12-18T03:55:56;16.23;;;8.52;;
33188;SDS011;52601;53.070;10.600;2022-12-18T03:58:44;21.48;;;9.23;;
33188;SDS011;52601;53.070;10.600;2022-12-18T04:01:33;17.88;;;8.43;;
33188;SDS011;52601;53.070;10.600;2022-12-18T04:04:22;17.67;;;8.63;;
33188;SDS011;52601;53.070;10.600;2022-12-18T04:07:09;21.52;;;9.18;;
33188;SDS011;52601;53.070;10.600;2022-12-18T04:09:56;16.45;;;8.38;;
33188;SDS011;52601;53.070;10.600;2022-12-18T04:12:45;17.73;;;9.32;;
33188;SDS011;52601;53.070;10.600;2022-12-18T04:15:33;17.38;;;9.27;;
33188;SDS011;52601;53.070;10.600;2022-12-18T04:18:21;13.93;;;7.90;;
33188;SDS011;52601;53.070;10.600;2022-12-18T04:21:06;16.67;;;7.95;;
33188;SDS011;52601;53.070;10.600;2022-12-18T04:23:52;16.88;;;8.70;;
33188;SDS011;52601;53.070;10.600;2022-12-18T04:26:38;13.93;;;8.10;;
33188;SDS011;52601;53.070;10.600;2022-12-18T04:29:23;14.52;;;7.75;;
33188;SDS011;52601;53.070;10.600;2022-12-18T04:32:08;17.50;;;8.23;;
33188;SDS011;52601;53.070;10.600;2022-12-18T04:34:54;14.80;;;7.75;;
33188;SDS011;52601;53.070;10.600;2022-12-18T04:37:39;14.17;;;7.73;;
33188;SDS011;52601;53.070;10.600;2022-12-18T04:40:25;16.05;;;8.02;;
33188;SDS011;52601;53.070;10.600;2022-12-18T04:43:10;14.35;;;7.85;;
33188;SDS011;52601;53.070;10.600;2022-12-18T04:46:03;16.90;;;7.90;;
33188;SDS011;52601;53.070;10.600;2022-12-18T04:48:50;14.85;;;8.35;;
33188;SDS011;52601;53.070;10.600;2022-12-18T04:51:36;13.70;;;8.60;;
33188;SDS011;52601;53.070;10.600;2022-12-18T04:54:22;16.13;;;8.27;;
33188;SDS011;52601;53.070;10.600;2022-12-18T04:57:08;17.25;;;8.15;;
33188;SDS011;52601;53.070;10.600;2022-12-18T04:59:54;16.25;;;7.35;;
33188;SDS011;52601;53.070;10.600;2022-12-18T05:02:40;16.48;;;8.45;;
33188;SDS011;52601;53.070;10.600;2022-12-18T05:05:25;14.95;;;7.45;;
33188;SDS011;52601;53.070;10.600;2022-12-18T05:08:12;16.45;;;8.05;;
33188;SDS011;52601;53.070;10.600;2022-12-18T05:10:58;16.77;;;7.80;;
33188;SDS011;52601;53.070;10.600;2022-12-18T05:13:52;13.30;;;6.70;;
33188;SDS011;52601;53.070;10.600;2022-12-18T05:16:38;16.08;;;7.65;;
33188;SDS011;52601;53.070;10.600;2022-12-18T05:19:23;13.93;;;7.22;;
33188;SDS011;52601;53.070;10.600;2022-12-18T05:22:09;13.73;;;7.32;;
33188;SDS011;52601;53.070;10.600;2022-12-18T05:24:55;16.88;;;8.00;;
33188;SDS011;52601;53.070;10.600;2022-12-18T05:27:40;13.13;;;7.18;;
33188;SDS011;52601;53.070;10.600;2022-12-18T05:30:26;15.85;;;8.52;;
33188;SDS011;52601;53.070;10.600;2022-12-18T05:33:12;15.10;;;6.80;;
33188;SDS011;52601;53.070;10.600;2022-12-18T05:35:59;18.60;;;8.82;;
33188;SDS011;52601;53.070;10.600;2022-12-18T05:38:47;15.25;;;8.07;;
33188;SDS011;52601;53.070;10.600;2022-12-18T05:41:32;18.13;;;8.17;;
33188;SDS011;52601;53.070;10.600;2022-12-18T05:44:18;13.55;;;7.50;;
33188;SDS011;52601;53.070;10.600;2022-12-18T05:47:03;13.77;;;7.43;;
33188;SDS011;52601;53.070;10.600;2022-12-18T05:49:49;16.35;;;7.50;;
33188;SDS011;52601;53.070;10.600;2022-12-18T05:52:35;15.10;;;7.65;;
33188;SDS011;52601;53.070;10.600;2022-12-18T05:55:20;15.93;;;7.97;;
33188;SDS011;52601;53.070;10.600;2022-12-18T05:58:06;15.73;;;8.27;;
33188;SDS011;52601;53.070;10.600;2022-12-18T06:00:53;16.15;;;7.82;;
33188;SDS011;52601;53.070;10.600;2022-12-18T06:03:39;15.80;;;7.13;;
33188;SDS011;52601;53.070;10.600;2022-12-18T06:06:26;16.48;;;7.57;;
33188;SDS011;52601;53.070;10.600;2022-12-18T06:09:12;15.82;;;8.40;;
33188;SDS011;52601;53.070;10.600;2022-12-18T06:11:58;15.80;;;8.23;;
33188;SDS011;52601;53.070;10.600;2022-12-18T06:14:44;14.77;;;8.25;;
33188;SDS011;52601;53.070;10.600;2022-12-18T06:17:32;16.65;;;8.65;;
33188;SDS011;52601;53.070;10.600;2022-12-18T06:20:18;17.57;;;8.27;;
33188;SDS011;52601;53.070;10.600;2022-12-18T06:23:04;17.67;;;7.95;;
33188;SDS011;52601;53.070;10.600;2022-12-18T06:25:50;17.35;;;9.70;;
33188;SDS011;52601;53.070;10.600;2022-12-18T06:28:36;17.60;;;7.93;;
33188;SDS011;52601;53.070;10.600;2022-12-18T06:31:22;18.13;;;9.67;;
33188;SDS011;52601;53.070;10.600;2022-12-18T06:34:08;15.60;;;7.38;;
33188;SDS011;52601;53.070;10.600;2022-12-18T06:36:53;15.30;;;8.07;;
33188;SDS011;52601;53.070;10.600;2022-12-18T06:39:39;14.25;;;6.97;;
33188;SDS011;52601;53.070;10.600;2022-12-18T06:42:24;19.27;;;8.17;;
33188;SDS011;52601;53.070;10.600;2022-12-18T06:45:10;18.98;;;9.25;;
33188;SDS011;52601;53.070;10.600;2022-12-18T06:47:56;15.70;;;8.40;;
33188;SDS011;52601;53.070;10.600;2022-12-18T06:50:43;16.88;;;8.25;;
33188;SDS011;52601;53.070;10.600;2022-12-18T06:53:28;18.73;;;8.23;;
33188;SDS011;52601;53.070;10.600;2022-12-18T06:56:14;18.17;;;7.65;;
33188;SDS011;52601;53.070;10.600;2022-12-18T06:59:00;17.75;;;8.23;;
33188;SDS011;52601;53.070;10.600;2022-12-18T07:01:46;12.68;;;6.88;;
33188;SDS011;52601;53.070;10.600;2022-12-18T07:04:32;15.65;;;8.02;;
33188;SDS011;52601;53.070;10.600;2022-12-18T07:07:17;17.08;;;8.38;;
33188;SDS011;52601;53.070;10.600;2022-12-18T07:10:03;12.77;;;7.10;;
33188;SDS011;52601;53.070;10.600;2022-12-18T07:12:48;18.20;;;8.48;;
33188;SDS011;52601;53.070;10.600;2022-12-18T07:15:34;43.55;;;20.05;;
33188;SDS011;52601;53.070;10.600;2022-12-18T07:18:20;20.88;;;10.35;;
33188;SDS011;52601;53.070;10.600;2022-12-18T07:21:06;22.70;;;12.60;;
33188;SDS011;52601;53.070;10.600;2022-12-18T07:23:53;19.20;;;9.75;;
33188;SDS011;52601;53.070;10.600;2022-12-18T07:26:39;16.23;;;8.73;;
33188;SDS011;52601;53.070;10.600;2022-12-18T07:29:24;14.48;;;7.93;;
33188;SDS011;52601;53.070;10.600;2022-12-18T07:32:10;17.42;;;8.60;;
33188;SDS011;52601;53.070;10.600;2022-12-18T07:34:56;18.10;;;9.02;;
33188;SDS011;52601;53.070;10.600;2022-12-18T07:37:42;19.00;;;8.13;;
33188;SDS011;52601;53.070;10.600;2022-12-18T07:40:27;18.70;;;8.45;;
33188;SDS011;52601;53.070;10.600;2022-12-18T07:43:12;14.60;;;7.82;;
33188;SDS011;52601;53.070;10.600;2022-12-18T07:45:58;14.32;;;7.47;;
33188;SDS011;52601;53.070;10.600;2022-12-18T07:48:44;14.48;;;8.35;;
33188;SDS011;52601;53.070;10.600;2022-12-18T07:51:33;17.60;;;8.05;;
33188;SDS011;52601;53.070;10.600;2022-12-18T07:54:19;14.25;;;7.05;;
33188;SDS011;52601;53.070;10.600;2022-12-18T07:57:04;14.82;;;7.07;;
33188;SDS011;52601;53.070;10.600;2022-12-18T08:00:10;19.75;;;8.57;;
33188;SDS011;52601;53.070;10.600;2022-12-18T08:02:59;19.65;;;9.10;;
33188;SDS011;52601;53.070;10.600;2022-12-18T08:05:45;15.98;;;8.13;;
33188;SDS011;52601;53.070;10.600;2022-12-18T08:08:31;13.93;;;7.55;;
33188;SDS011;52601;53.070;10.600;2022-12-18T08:11:16;17.05;;;8.00;;
33188;SDS011;52601;53.070;10.600;2022-12-18T08:14:03;20.08;;;9.35;;
33188;SDS011;52601;53.070;10.600;2022-12-18T08:16:48;18.73;;;9.05;;
33188;SDS011;52601;53.070;10.600;2022-12-18T08:19:34;16.95;;;8.80;;
33188;SDS011;52601;53.070;10.600;2022-12-18T08:22:19;16.75;;;8.15;;
33188;SDS011;52601;53.070;10.600;2022-12-18T08:25:05;15.25;;;8.00;;
33188;SDS011;52601;53.070;10.600;2022-12-18T08:27:51;14.75;;;7.60;;
33188;SDS011;52601;53.070;10.600;2022-12-18T08:30:37;20.25;;;9.15;;
33188;SDS011;52601;53.070;10.600;2022-12-18T08:33:22;14.65;;;7.55;;
33188;SDS011;52601;53.070;10.600;2022-12-18T08:36:08;18.10;;;9.40;;
33188;SDS011;52601;53.070;10.600;2022-12-18T08:38:55;13.75;;;7.70;;
33188;SDS011;52601;53.070;10.600;2022-12-18T08:41:41;14.30;;;7.50;;
33188;SDS011;52601;53.070;10.600;2022-12-18T08:44:27;13.37;;;7.23;;
33188;SDS011;52601;53.070;10.600;2022-12-18T08:47:24;13.20;;;7.50;;
33188;SDS011;52601;53.070;10.600;2022-12-18T08:50:11;20.33;;;8.50;;
33188;SDS011;52601;53.070;10.600;2022-12-18T08:52:57;11.65;;;6.70;;
33188;SDS011;52601;53.070;10.600;2022-12-18T08:55:42;16.57;;;7.37;;
33188;SDS011;52601;53.070;10.600;2022-12-18T08:58:34;16.17;;;6.82;;
33188;SDS011;52601;53.070;10.600;2022-12-18T09:01:20;14.85;;;7.75;;
33188;SDS011;52601;53.070;10.600;2022-12-18T09:04:07;15.10;;;7.03;;
33188;SDS011;52601;53.070;10.600;2022-12-18T09:06:55;15.60;;;7.37;;
33188;SDS011;52601;53.070;10.600;2022-12-18T09:09:40;15.35;;;6.97;;
33188;SDS011;52601;53.070;10.600;2022-12-18T09:12:26;16.00;;;7.20;;
33188;SDS011;52601;53.070;10.600;2022-12-18T09:15:11;13.68;;;6.63;;
33188;SDS011;52601;53.070;10.600;2022-12-18T09:17:57;19.60;;;8.63;;
33188;SDS011;52601;53.070;10.600;2022-12-18T09:20:43;14.95;;;6.35;;
33188;SDS011;52601;53.070;10.600;2022-12-18T09:23:29;13.57;;;7.07;;
33188;SDS011;52601;53.070;10.600;2022-12-18T09:26:14;13.40;;;6.65;;
33188;SDS011;52601;53.070;10.600;2022-12-18T09:29:00;11.73;;;6.60;;
33188;SDS011;52601;53.070;10.600;2022-12-18T09:31:45;13.13;;;6.57;;
33188;SDS011;52601;53.070;10.600;2022-12-18T09:34:30;12.40;;;6.97;;
33188;SDS011;52601;53.070;10.600;2022-12-18T09:37:16;13.20;;;6.65;;
33188;SDS011;52601;53.070;10.600;2022-12-18T09:40:01;15.18;;;7.00;;
33188;SDS011;52601;53.070;10.600;2022-12-18T09:42:52;13.88;;;7.13;;
33188;SDS011;52601;53.070;10.600;2022-12-18T09:45:44;16.25;;;6.88;;
33188;SDS011;52601;53.070;10.600;2022-12-18T09:48:35;14.18;;;7.05;;
33188;SDS011;52601;53.070;10.600;2022-12-18T09:51:30;14.37;;;6.87;;
33188;SDS011;52601;53.070;10.600;2022-12-18T09:54:24;13.82;;;6.60;;
33188;SDS011;52601;53.070;10.600;2022-12-18T09:57:20;14.23;;;6.88;;
33188;SDS011;52601;53.070;10.600;2022-12-18T10:00:18;14.00;;;7.10;;
33188;SDS011;52601;53.070;10.600;2022-12-18T10:03:10;16.55;;;7.35;;
33188;SDS011;52601;53.070;10.600;2022-12-18T10:06:08;14.85;;;6.95;;
33188;SDS011;52601;53.070;10.600;2022-12-18T10:09:01;13.38;;;6.80;;
33188;SDS011;52601;53.070;10.600;2022-12-18T10:15:15;15.35;;;7.30;;
33188;SDS011;52601;53.070;10.600;2022-12-18T10:21:24;12.38;;;6.57;;
33188;SDS011;52601;53.070;10.600;2022-12-18T10:24:52;12.85;;;6.07;;
33188;SDS011;52601;53.070;10.600;2022-12-18T10:28:00;13.10;;;6.65;;
33188;SDS011;52601;53.070;10.600;2022-12-18T10:30:53;11.60;;;6.47;;
33188;SDS011;52601;53.070;10.600;2022-12-18T10:33:39;12.48;;;5.68;;
33188;SDS011;52601;53.070;10.600;2022-12-18T10:36:26;10.30;;;5.57;;
33188;SDS011;52601;53.070;10.600;2022-12-18T10:39:18;11.05;;;6.05;;
33188;SDS011;52601;53.070;10.600;2022-12-18T10:42:09;11.82;;;6.05;;
33188;SDS011;52601;53.070;10.600;2022-12-18T10:45:14;11.98;;;5.50;;
33188;SDS011;52601;53.070;10.600;2022-12-18T10:48:01;13.55;;;6.47;;
33188;SDS011;52601;53.070;10.600;2022-12-18T10:50:48;12.32;;;5.43;;
33188;SDS011;52601;53.070;10.600;2022-12-18T10:53:57;10.82;;;5.88;;
33188;SDS011;52601;53.070;10.600;2022-12-18T10:56:47;12.93;;;6.28;;
33188;SDS011;52601;53.070;10.600;2022-12-18T10:59:32;10.27;;;5.57;;
33188;SDS011;52601;53.070;10.600;2022-12-18T11:02:37;14.15;;;6.35;;
33188;SDS011;52601;53.070;10.600;2022-12-18T11:05:29;12.33;;;6.20;;
33188;SDS011;52601;53.070;10.600;2022-12-18T11:08:20;11.87;;;6.20;;
33188;SDS011;52601;53.070;10.600;2022-12-18T11:11:20;14.37;;;6.50;;
33188;SDS011;52601;53.070;10.600;2022-12-18T11:14:15;15.32;;;6.30;;
33188;SDS011;52601;53.070;10.600;2022-12-18T11:17:29;10.25;;;5.43;;
33188;SDS011;52601;53.070;10.600;2022-12-18T11:23:52;11.30;;;5.78;;
33188;SDS011;52601;53.070;10.600;2022-12-18T11:26:38;13.57;;;6.90;;
33188;SDS011;52601;53.070;10.600;2022-12-18T11:29:31;13.82;;;6.43;;
33188;SDS011;52601;53.070;10.600;2022-12-18T11:32:38;15.82;;;6.88;;
33188;SDS011;52601;53.070;10.600;2022-12-18T11:36:00;12.45;;;6.45;;
33188;SDS011;52601;53.070;10.600;2022-12-18T11:38:43;15.23;;;6.72;;
33188;SDS011;52601;53.070;10.600;2022-12-18T11:41:46;11.93;;;6.65;;
33188;SDS011;52601;53.070;10.600;2022-12-18T11:48:09;10.75;;;6.05;;
33188;SDS011;52601;53.070;10.600;2022-12-18T11:51:03;17.43;;;7.57;;
33188;SDS011;52601;53.070;10.600;2022-12-18T11:53:56;14.88;;;6.65;;
33188;SDS011;52601;53.070;10.600;2022-12-18T11:59:52;14.47;;;6.93;;
33188;SDS011;52601;53.070;10.600;2022-12-18T12:12:17;15.70;;;6.68;;
33188;SDS011;52601;53.070;10.600;2022-12-18T12:15:36;12.93;;;7.55;;
33188;SDS011;52601;53.070;10.600;2022-12-18T12:22:03;14.38;;;6.93;;
33188;SDS011;52601;53.070;10.600;2022-12-18T12:28:15;15.02;;;6.97;;
33188;SDS011;52601;53.070;10.600;2022-12-18T12:34:17;15.35;;;6.90;;
33188;SDS011;52601;53.070;10.600;2022-12-18T12:40:20;15.02;;;6.43;;
33188;SDS011;52601;53.070;10.600;2022-12-18T12:43:41;16.40;;;7.25;;
33188;SDS011;52601;53.070;10.600;2022-12-18T12:46:49;16.20;;;7.35;;
33188;SDS011;52601;53.070;10.600;2022-12-18T12:49:39;14.57;;;7.68;;
33188;SDS011;52601;53.070;10.600;2022-12-18T12:52:35;16.02;;;6.47;;
33188;SDS011;52601;53.070;10.600;2022-12-18T12:55:28;17.38;;;7.78;;
33188;SDS011;52601;53.070;10.600;2022-12-18T12:58:26;14.48;;;7.32;;
33188;SDS011;52601;53.070;10.600;2022-12-18T13:01:24;16.03;;;7.30;;
33188;SDS011;52601;53.070;10.600;2022-12-18T13:04:34;19.50;;;8.85;;
33188;SDS011;52601;53.070;10.600;2022-12-18T13:07:27;15.88;;;8.20;;
33188;SDS011;52601;53.070;10.600;2022-12-18T13:13:09;17.98;;;7.85;;
33188;SDS011;52601;53.070;10.600;2022-12-18T13:16:03;17.17;;;8.20;;
33188;SDS011;52601;53.070;10.600;2022-12-18T13:18:51;19.45;;;8.07;;
33188;SDS011;52601;53.070;10.600;2022-12-18T13:21:39;16.60;;;6.78;;
33188;SDS011;52601;53.070;10.600;2022-12-18T13:24:26;19.10;;;8.00;;
33188;SDS011;52601;53.070;10.600;2022-12-18T13:36:16;16.20;;;7.80;;
33188;SDS011;52601;53.070;10.600;2022-12-18T13:45:35;15.80;;;7.32;;
33188;SDS011;52601;53.070;10.600;2022-12-18T13:48:27;16.95;;;7.75;;
33188;SDS011;52601;53.070;10.600;2022-12-18T13:51:17;13.38;;;7.25;;
33188;SDS011;52601;53.070;10.600;2022-12-18T13:54:13;14.55;;;6.82;;
33188;SDS011;52601;53.070;10.600;2022-12-18T14:03:21;12.85;;;6.93;;
33188;SDS011;52601;53.070;10.600;2022-12-18T14:06:11;15.90;;;6.95;;
33188;SDS011;52601;53.070;10.600;2022-12-18T14:08:59;18.10;;;7.75;;
33188;SDS011;52601;53.070;10.600;2022-12-18T14:11:48;15.80;;;8.10;;
33188;SDS011;52601;53.070;10.600;2022-12-18T14:14:35;15.75;;;7.50;;
33188;SDS011;52601;53.070;10.600;2022-12-18T14:17:21;19.10;;;6.45;;
33188;SDS011;52601;53.070;10.600;2022-12-18T14:20:13;15.48;;;7.00;;
33188;SDS011;52601;53.070;10.600;2022-12-18T14:23:00;14.48;;;7.93;;
33188;SDS011;52601;53.070;10.600;2022-12-18T14:25:46;15.90;;;7.85;;
33188;SDS011;52601;53.070;10.600;2022-12-18T14:28:32;19.17;;;8.93;;
33188;SDS011;52601;53.070;10.600;2022-12-18T14:31:18;14.35;;;7.60;;
33188;SDS011;52601;53.070;10.600;2022-12-18T14:34:14;14.82;;;8.07;;
33188;SDS011;52601;53.070;10.600;2022-12-18T14:37:01;14.27;;;7.03;;
33188;SDS011;52601;53.070;10.600;2022-12-18T14:39:53;16.90;;;7.70;;
33188;SDS011;52601;53.070;10.600;2022-12-18T14:42:42;15.10;;;8.07;;
33188;SDS011;52601;53.070;10.600;2022-12-18T14:48:35;15.40;;;8.35;;
33188;SDS011;52601;53.070;10.600;2022-12-18T14:51:25;16.52;;;8.45;;
33188;SDS011;52601;53.070;10.600;2022-12-18T14:54:16;14.25;;;7.65;;
33188;SDS011;52601;53.070;10.600;2022-12-18T15:00:14;14.68;;;7.75;;
33188;SDS011;52601;53.070;10.600;2022-12-18T15:03:01;13.43;;;7.07;;
33188;SDS011;52601;53.070;10.600;2022-12-18T15:05:53;13.45;;;6.97;;
33188;SDS011;52601;53.070;10.600;2022-12-18T15:08:38;16.25;;;7.97;;
33188;SDS011;52601;53.070;10.600;2022-12-18T15:11:43;15.33;;;8.00;;
33188;SDS011;52601;53.070;10.600;2022-12-18T15:14:31;12.90;;;7.32;;
33188;SDS011;52601;53.070;10.600;2022-12-18T15:17:24;15.30;;;7.70;;
33188;SDS011;52601;53.070;10.600;2022-12-18T15:20:10;15.65;;;7.30;;
33188;SDS011;52601;53.070;10.600;2022-12-18T15:22:56;14.17;;;7.30;;
33188;SDS011;52601;53.070;10.600;2022-12-18T15:25:41;14.73;;;7.47;;
33188;SDS011;52601;53.070;10.600;2022-12-18T15:28:37;13.25;;;7.20;;
33188;SDS011;52601;53.070;10.600;2022-12-18T15:31:32;18.65;;;6.93;;
33188;SDS011;52601;53.070;10.600;2022-12-18T15:34:23;13.07;;;6.18;;
33188;SDS011;52601;53.070;10.600;2022-12-18T15:37:08;15.90;;;8.35;;
33188;SDS011;52601;53.070;10.600;2022-12-18T15:39:54;15.65;;;7.97;;
33188;SDS011;52601;53.070;10.600;2022-12-18T15:42:40;14.15;;;7.05;;
33188;SDS011;52601;53.070;10.600;2022-12-18T15:45:45;14.50;;;6.93;;
33188;SDS011;52601;53.070;10.600;2022-12-18T15:48:34;14.37;;;6.63;;
33188;SDS011;52601;53.070;10.600;2022-12-18T15:51:25;12.63;;;6.73;;
33188;SDS011;52601;53.070;10.600;2022-12-18T15:54:13;13.93;;;6.60;;
33188;SDS011;52601;53.070;10.600;2022-12-18T15:57:01;13.60;;;7.00;;
33188;SDS011;52601;53.070;10.600;2022-12-18T16:00:05;12.90;;;6.53;;
33188;SDS011;52601;53.070;10.600;2022-12-18T16:02:51;13.27;;;6.25;;
33188;SDS011;52601;53.070;10.600;2022-12-18T16:05:36;16.27;;;6.20;;
33188;SDS011;52601;53.070;10.600;2022-12-18T16:08:22;10.00;;;5.75;;
33188;SDS011;52601;53.070;10.600;2022-12-18T16:11:11;9.90;;;6.13;;
33188;SDS011;52601;53.070;10.600;2022-12-18T16:14:38;9.63;;;5.95;;
33188;SDS011;52601;53.070;10.600;2022-12-18T16:17:23;10.65;;;5.82;;
33188;SDS011;52601;53.070;10.600;2022-12-18T16:20:12;10.73;;;5.93;;
33188;SDS011;52601;53.070;10.600;2022-12-18T16:23:00;11.27;;;5.67;;
33188;SDS011;52601;53.070;10.600;2022-12-18T16:25:46;12.65;;;6.32;;
33188;SDS011;52601;53.070;10.600;2022-12-18T16:28:32;11.57;;;6.20;;
33188;SDS011;52601;53.070;10.600;2022-12-18T16:31:17;12.03;;;6.30;;
33188;SDS011;52601;53.070;10.600;2022-12-18T16:34:19;10.88;;;5.57;;
33188;SDS011;52601;53.070;10.600;2022-12-18T16:37:10;9.93;;;5.30;;
33188;SDS011;52601;53.070;10.600;2022-12-18T16:39:56;11.95;;;5.90;;
33188;SDS011;52601;53.070;10.600;2022-12-18T16:42:43;8.55;;;4.60;;
33188;SDS011;52601;53.070;10.600;2022-12-18T16:45:29;10.57;;;5.68;;
33188;SDS011;52601;53.070;10.600;2022-12-18T16:48:18;9.55;;;5.43;;
33188;SDS011;52601;53.070;10.600;2022-12-18T16:51:04;11.32;;;5.70;;
33188;SDS011;52601;53.070;10.600;2022-12-18T16:53:49;11.15;;;5.93;;
33188;SDS011;52601;53.070;10.600;2022-12-18T16:56:35;11.88;;;5.72;;
33188;SDS011;52601;53.070;10.600;2022-12-18T16:59:21;12.55;;;5.45;;
33188;SDS011;52601;53.070;10.600;2022-12-18T17:02:20;9.63;;;5.38;;
33188;SDS011;52601;53.070;10.600;2022-12-18T17:05:08;11.13;;;5.63;;
33188;SDS011;52601;53.070;10.600;2022-12-18T17:07:54;8.10;;;4.95;;
33188;SDS011;52601;53.070;10.600;2022-12-18T17:10:39;9.80;;;5.80;;
33188;SDS011;52601;53.070;10.600;2022-12-18T17:13:25;10.40;;;5.35;;
33188;SDS011;52601;53.070;10.600;2022-12-18T17:16:11;10.60;;;5.30;;
33188;SDS011;52601;53.070;10.600;2022-12-18T17:18:56;9.80;;;5.90;;
33188;SDS011;52601;53.070;10.600;2022-12-18T17:21:42;8.02;;;4.40;;
33188;SDS011;52601;53.070;10.600;2022-12-18T17:24:28;11.43;;;5.18;;
33188;SDS011;52601;53.070;10.600;2022-12-18T17:27:19;10.30;;;5.80;;
33188;SDS011;52601;53.070;10.600;2022-12-18T17:30:05;8.77;;;4.28;;
33188;SDS011;52601;53.070;10.600;2022-12-18T17:32:50;7.35;;;4.30;;
33188;SDS011;52601;53.070;10.600;2022-12-18T17:35:36;8.35;;;4.90;;
33188;SDS011;52601;53.070;10.600;2022-12-18T17:38:21;15.57;;;4.85;;
33188;SDS011;52601;53.070;10.600;2022-12-18T17:41:07;5.97;;;3.80;;
33188;SDS011;52601;53.070;10.600;2022-12-18T17:43:54;8.17;;;4.47;;
33188;SDS011;52601;53.070;10.600;2022-12-18T17:46:41;7.80;;;4.40;;
33188;SDS011;52601;53.070;10.600;2022-12-18T17:49:27;8.65;;;4.20;;
33188;SDS011;52601;53.070;10.600;2022-12-18T17:52:13;10.77;;;5.53;;
33188;SDS011;52601;53.070;10.600;2022-12-18T17:54:59;9.97;;;4.87;;
33188;SDS011;52601;53.070;10.600;2022-12-18T17:57:44;11.10;;;5.17;;
33188;SDS011;52601;53.070;10.600;2022-12-18T18:00:29;10.18;;;4.60;;
33188;SDS011;52601;53.070;10.600;2022-12-18T18:03:15;9.35;;;4.45;;
33188;SDS011;52601;53.070;10.600;2022-12-18T18:06:01;23.15;;;5.85;;